createdAt,value
2022-10-09T00:01:15.407Z,96.19
2022-10-09T00:04:01.471Z,96.57
2022-10-09T00:06:47.266Z,96.34
2022-10-09T00:09:33.166Z,96.28
2022-10-09T00:12:18.664Z,96.49
2022-10-09T00:15:04.973Z,96.13
2022-10-09T00:17:51.082Z,96.28
2022-10-09T00:20:42.451Z,96.58
2022-10-09T00:23:28.670Z,96.55
2022-10-09T00:26:14.817Z,96.61
2022-10-09T00:29:01.001Z,96.55
2022-10-09T00:31:46.682Z,96.42
2022-10-09T00:34:32.420Z,96.42
2022-10-09T00:37:18.615Z,96.53
2022-10-09T00:40:04.792Z,96.20
2022-10-09T00:42:57.126Z,96.30
2022-10-09T00:45:50.875Z,96.26
2022-10-09T00:48:37.011Z,96.35
2022-10-09T00:51:22.659Z,96.33
2022-10-09T00:54:11.378Z,96.40
2022-10-09T00:56:57.403Z,96.57
2022-10-09T00:59:43.639Z,96.31
2022-10-09T01:02:29.710Z,96.60
2022-10-09T01:05:15.962Z,96.41
2022-10-09T01:08:08.475Z,96.62
2022-10-09T01:11:01.455Z,96.56
2022-10-09T01:13:53.059Z,96.43
2022-10-09T01:16:51.319Z,96.38
2022-10-09T01:19:54.746Z,96.78
2022-10-09T01:23:00.765Z,96.60
2022-10-09T01:26:15.161Z,96.48
2022-10-09T01:29:09.947Z,96.45
2022-10-09T01:31:55.885Z,96.29
2022-10-09T01:34:42.950Z,95.96
2022-10-09T01:37:30.501Z,96.30
2022-10-09T01:40:17.591Z,96.39
2022-10-09T01:43:02.990Z,96.20
2022-10-09T01:45:49.316Z,96.40
2022-10-09T01:48:35.006Z,96.78
2022-10-09T01:51:22.569Z,96.70
2022-10-09T01:54:09.541Z,96.41
2022-10-09T01:56:56.161Z,96.58
2022-10-09T01:59:43.799Z,96.63
2022-10-09T02:02:30.127Z,96.64
2022-10-09T02:05:21.254Z,96.47
2022-10-09T02:08:07.465Z,96.18
2022-10-09T02:10:55.851Z,96.33
2022-10-09T02:13:42.174Z,96.54
2022-10-09T02:16:33.558Z,96.67
2022-10-09T02:19:26.573Z,96.51
2022-10-09T02:22:19.104Z,96.89
2022-10-09T02:25:06.425Z,96.67
2022-10-09T02:27:52.085Z,96.68
2022-10-09T02:30:46.963Z,96.84
2022-10-09T02:33:35.402Z,96.28
2022-10-09T02:36:20.970Z,96.56
2022-10-09T02:39:07.390Z,96.32
2022-10-09T02:41:53.739Z,96.53
2022-10-09T02:44:39.215Z,96.76
2022-10-09T02:47:25.070Z,96.44
2022-10-09T02:50:10.610Z,96.22
2022-10-09T02:52:56.360Z,96.35
2022-10-09T02:55:42.318Z,96.34
2022-10-09T02:58:31.083Z,96.26
2022-10-09T03:01:17.813Z,96.43
2022-10-09T03:04:04.166Z,96.30
2022-10-09T03:06:50.158Z,96.18
2022-10-09T03:09:36.229Z,96.43
2022-10-09T03:12:22.242Z,96.84
2022-10-09T03:15:08.857Z,96.63
2022-10-09T03:17:54.646Z,96.43
2022-10-09T03:20:40.379Z,96.18
2022-10-09T03:23:26.988Z,96.76
2022-10-09T03:26:15.335Z,96.87
2022-10-09T03:29:00.784Z,96.84
2022-10-09T03:31:52.320Z,96.57
2022-10-09T03:34:38.725Z,96.69
2022-10-09T03:37:24.816Z,96.50
2022-10-09T03:40:10.870Z,96.71
2022-10-09T03:42:57.209Z,96.29
2022-10-09T03:45:43.745Z,96.96
2022-10-09T03:48:29.741Z,96.75
2022-10-09T03:51:15.190Z,96.72
2022-10-09T03:54:01.259Z,96.77
2022-10-09T03:56:46.876Z,96.66
2022-10-09T03:59:32.610Z,96.74
2022-10-09T04:02:18.140Z,96.64
2022-10-09T04:05:04.112Z,97.09
2022-10-09T04:07:49.765Z,96.93
2022-10-09T04:10:35.729Z,96.72
2022-10-09T04:13:21.226Z,96.43
2022-10-09T04:16:09.631Z,96.99
2022-10-09T04:18:55.574Z,96.60
2022-10-09T04:21:41.314Z,97.04
2022-10-09T04:24:27.355Z,96.93
2022-10-09T04:27:14.064Z,96.55
2022-10-09T04:29:59.929Z,96.86
2022-10-09T04:32:48.178Z,96.64
2022-10-09T04:35:34.341Z,96.87
2022-10-09T04:38:21.302Z,96.84
2022-10-09T04:41:07.446Z,96.68
2022-10-09T04:43:56.959Z,96.97
2022-10-09T04:46:42.621Z,97.17
2022-10-09T04:49:28.224Z,96.46
2022-10-09T04:52:13.712Z,96.82
2022-10-09T04:54:59.405Z,96.62
2022-10-09T04:57:44.958Z,97.23
2022-10-09T05:00:30.554Z,97.46
2022-10-09T05:03:16.618Z,97.17
2022-10-09T05:06:03.828Z,97.39
2022-10-09T05:08:50.084Z,96.91
2022-10-09T05:11:41.674Z,97.47
2022-10-09T05:14:29.071Z,97.77
2022-10-09T05:17:16.538Z,98.02
2022-10-09T05:20:04.411Z,97.48
2022-10-09T05:22:50.962Z,97.89
2022-10-09T05:25:37.806Z,97.85
2022-10-09T05:28:24.176Z,97.90
2022-10-09T05:31:23.933Z,98.10
2022-10-09T05:34:10.648Z,98.13
2022-10-09T05:36:56.748Z,98.03
2022-10-09T05:39:42.894Z,97.92
2022-10-09T05:42:28.549Z,97.92
2022-10-09T05:45:14.669Z,97.93
2022-10-09T05:48:00.228Z,98.10
2022-10-09T05:50:46.689Z,97.79
2022-10-09T05:53:32.628Z,97.37
2022-10-09T05:56:24.015Z,97.93
2022-10-09T05:59:15.746Z,97.57
2022-10-09T06:02:01.489Z,97.72
2022-10-09T06:04:47.140Z,97.72
2022-10-09T06:07:33.449Z,97.46
2022-10-09T06:10:19.693Z,97.40
2022-10-09T06:13:05.204Z,97.08
2022-10-09T06:15:54.883Z,96.71
2022-10-09T06:18:44.407Z,96.93
2022-10-09T06:21:34.481Z,96.92
2022-10-09T06:24:27.346Z,96.97
2022-10-09T06:27:15.190Z,97.07
2022-10-09T06:30:00.873Z,97.37
2022-10-09T06:32:47.920Z,97.17
2022-10-09T06:35:34.904Z,96.90
2022-10-09T06:38:21.321Z,96.96
2022-10-09T06:41:11.501Z,96.80
2022-10-09T06:44:02.721Z,96.71
2022-10-09T06:46:49.860Z,96.75
2022-10-09T06:49:35.497Z,96.82
2022-10-09T06:52:21.325Z,96.58
2022-10-09T06:55:07.313Z,97.15
2022-10-09T06:57:52.971Z,96.79
2022-10-09T07:00:38.945Z,96.79
2022-10-09T07:03:24.917Z,96.82
2022-10-09T07:06:13.809Z,96.63
2022-10-09T07:09:01.656Z,96.73
2022-10-09T07:11:49.288Z,96.38
2022-10-09T07:14:35.241Z,96.41
2022-10-09T07:17:20.770Z,96.42
2022-10-09T07:20:06.833Z,96.46
2022-10-09T07:22:52.943Z,96.23
2022-10-09T07:25:39.575Z,96.33
2022-10-09T07:28:27.433Z,96.28
2022-10-09T07:31:13.743Z,96.03
2022-10-09T07:34:00.505Z,95.97
2022-10-09T07:36:46.879Z,96.08
2022-10-09T07:39:32.567Z,95.97
2022-10-09T07:42:18.272Z,95.51
2022-10-09T07:45:05.272Z,95.57
2022-10-09T07:47:51.644Z,95.71
2022-10-09T07:50:37.721Z,95.28
2022-10-09T07:53:23.790Z,95.34
2022-10-09T07:56:18.224Z,95.14
2022-10-09T07:59:06.234Z,95.06
2022-10-09T08:01:51.877Z,94.92
2022-10-09T08:04:37.802Z,94.81
2022-10-09T08:07:23.478Z,94.84
2022-10-09T08:10:09.849Z,94.69
2022-10-09T08:12:55.647Z,94.80
2022-10-09T08:15:42.789Z,94.64
2022-10-09T08:18:28.534Z,94.50
2022-10-09T08:21:17.128Z,94.04
2022-10-09T08:24:03.146Z,94.50
2022-10-09T08:26:48.717Z,93.90
2022-10-09T08:29:39.937Z,93.78
2022-10-09T08:32:26.109Z,93.80
2022-10-09T08:35:11.729Z,93.33
2022-10-09T08:37:57.996Z,93.08
2022-10-09T08:40:46.556Z,92.94
2022-10-09T08:43:36.156Z,92.84
2022-10-09T08:47:14.229Z,92.38
2022-10-09T08:50:13.256Z,92.29
2022-10-09T08:53:34.220Z,91.99
2022-10-09T08:56:20.337Z,92.05
2022-10-09T08:59:06.075Z,92.00
2022-10-09T09:02:10.779Z,91.93
2022-10-09T09:05:19.429Z,90.76
2022-10-09T09:08:33.650Z,90.81
2022-10-09T09:11:38.423Z,91.00
2022-10-09T09:14:44.425Z,90.63
2022-10-09T09:17:39.357Z,90.37
2022-10-09T09:20:29.644Z,90.49
2022-10-09T09:23:16.566Z,89.54
2022-10-09T09:26:02.754Z,89.38
2022-10-09T09:28:52.691Z,89.40
2022-10-09T09:31:39.467Z,89.80
2022-10-09T09:34:35.289Z,88.75
2022-10-09T09:37:20.838Z,87.25
2022-10-09T09:43:23.104Z,86.03
2022-10-09T09:46:16.328Z,87.24
2022-10-09T09:49:07.051Z,87.32
2022-10-09T09:51:57.484Z,87.17
2022-10-09T09:54:48.193Z,85.82
2022-10-09T09:57:40.990Z,86.03
2022-10-09T10:00:27.051Z,86.34
2022-10-09T10:03:16.526Z,86.44
2022-10-09T10:06:02.615Z,84.50
2022-10-09T10:08:59.369Z,85.31
2022-10-09T10:11:59.779Z,85.54
2022-10-09T10:14:50.047Z,85.67
2022-10-09T10:17:37.182Z,85.51
2022-10-09T10:20:22.931Z,84.51
2022-10-09T10:23:41.831Z,84.56
2022-10-09T10:26:49.147Z,84.78
2022-10-09T10:29:47.797Z,84.75
2022-10-09T10:32:56.152Z,83.79
2022-10-09T10:35:44.213Z,84.58
2022-10-09T10:38:42.987Z,83.94
2022-10-09T10:41:32.573Z,83.83
2022-10-09T10:45:00.481Z,83.39
2022-10-09T10:47:53.139Z,83.06
2022-10-09T10:50:47.813Z,82.78
2022-10-09T10:54:09.481Z,82.58
2022-10-09T10:57:12.968Z,81.74
2022-10-09T11:00:07.834Z,81.08
2022-10-09T11:03:07.901Z,82.08
2022-10-09T11:05:57.857Z,81.79
2022-10-09T11:09:01.821Z,81.21
2022-10-09T11:11:56.122Z,80.63
2022-10-09T11:14:51.301Z,80.88
2022-10-09T11:17:51.050Z,80.60
2022-10-09T11:20:58.940Z,80.94
2022-10-09T11:24:24.126Z,80.45
2022-10-09T11:27:22.121Z,80.58
2022-10-09T11:30:13.077Z,78.92
2022-10-09T11:33:38.742Z,80.09
2022-10-09T11:36:28.047Z,79.98
2022-10-09T11:39:23.958Z,79.75
2022-10-09T11:42:10.785Z,79.69
2022-10-09T11:45:05.107Z,79.61
2022-10-09T11:48:11.883Z,78.56
2022-10-09T11:51:19.859Z,78.51
2022-10-09T11:54:12.719Z,78.53
2022-10-09T11:57:00.456Z,77.92
2022-10-09T11:59:48.213Z,77.50
2022-10-09T12:02:34.955Z,77.20
2022-10-09T12:05:39.881Z,77.23
2022-10-09T12:08:26.988Z,77.64
2022-10-09T12:11:17.514Z,76.98
2022-10-09T12:14:05.896Z,76.47
2022-10-09T12:16:52.212Z,75.94
2022-10-09T12:19:39.669Z,76.25
2022-10-09T12:22:29.133Z,76.41
2022-10-09T12:25:28.578Z,76.12
2022-10-09T12:28:19.992Z,75.88
2022-10-09T12:31:14.563Z,75.84
2022-10-09T12:34:19.249Z,74.82
2022-10-09T12:37:20.623Z,75.33
2022-10-09T12:40:09.938Z,75.54
2022-10-09T12:42:56.921Z,74.87
2022-10-09T12:45:45.566Z,75.14
2022-10-09T12:48:37.236Z,75.42
2022-10-09T12:51:25.730Z,75.36
2022-10-09T12:54:14.988Z,75.01
2022-10-09T12:57:01.508Z,74.68
2022-10-09T12:59:47.983Z,74.80
2022-10-09T13:02:33.724Z,73.96
2022-10-09T13:05:19.611Z,73.71
2022-10-09T13:08:06.302Z,74.10
2022-10-09T13:10:52.936Z,73.80
2022-10-09T13:13:39.586Z,73.31
2022-10-09T13:16:25.544Z,73.08
2022-10-09T13:19:26.110Z,72.27
2022-10-09T13:22:14.397Z,72.28
2022-10-09T13:25:00.545Z,72.18
2022-10-09T13:27:45.958Z,72.01
2022-10-09T13:30:32.174Z,71.92
2022-10-09T13:33:18.214Z,72.10
2022-10-09T13:36:04.429Z,71.76
2022-10-09T13:38:50.478Z,71.63
2022-10-09T13:41:36.840Z,71.62
2022-10-09T13:44:23.012Z,71.64
2022-10-09T13:47:09.102Z,71.26
2022-10-09T13:49:54.790Z,71.05
2022-10-09T13:55:31.187Z,70.16
2022-10-09T13:58:17.089Z,70.36
2022-10-09T14:01:03.168Z,70.20
2022-10-09T14:03:49.611Z,70.44
2022-10-09T14:06:36.668Z,70.62
2022-10-09T14:09:22.666Z,70.46
2022-10-09T14:12:08.730Z,70.20
2022-10-09T14:14:54.506Z,70.08
2022-10-09T14:17:40.221Z,69.92
2022-10-09T14:20:27.072Z,69.62
2022-10-09T14:23:13.594Z,69.85
2022-10-09T14:26:04.029Z,69.92
2022-10-09T14:28:49.951Z,69.26
2022-10-09T14:31:35.759Z,69.07
2022-10-09T14:34:21.967Z,69.00
2022-10-09T14:37:18.755Z,68.64
2022-10-09T14:40:13.619Z,69.15
2022-10-09T14:42:59.543Z,69.54
2022-10-09T14:45:45.070Z,69.32
2022-10-09T14:48:30.964Z,69.66
2022-10-09T14:51:22.026Z,69.62
2022-10-09T14:54:08.841Z,69.75
2022-10-09T14:56:55.075Z,69.87
2022-10-09T14:59:41.002Z,70.17
2022-10-09T15:02:26.458Z,69.96
2022-10-09T15:05:12.301Z,70.33
2022-10-09T15:07:57.830Z,70.32
2022-10-09T15:10:44.002Z,70.32
2022-10-09T15:13:29.969Z,70.54
2022-10-09T15:16:17.580Z,70.63
2022-10-09T15:19:04.643Z,70.96
2022-10-09T15:21:50.257Z,70.86
2022-10-09T15:24:35.868Z,70.85
2022-10-09T15:27:21.934Z,71.27
2022-10-09T15:30:08.479Z,71.59
2022-10-09T15:32:54.842Z,71.79
2022-10-09T15:35:40.333Z,71.84
2022-10-09T15:38:26.493Z,72.19
2022-10-09T15:41:25.314Z,72.24
2022-10-09T15:44:16.876Z,72.84
2022-10-09T15:47:03.448Z,73.18
2022-10-09T15:49:53.357Z,73.57
2022-10-09T15:52:39.175Z,74.18
2022-10-09T15:55:24.843Z,74.41
2022-10-09T15:58:10.987Z,74.64
2022-10-09T16:01:02.533Z,75.04
2022-10-09T16:03:48.425Z,75.15
2022-10-09T16:06:34.406Z,75.59
2022-10-09T16:09:19.950Z,75.85
2022-10-09T16:12:05.834Z,76.32
2022-10-09T16:14:51.681Z,76.63
2022-10-09T16:17:37.811Z,76.98
2022-10-09T16:20:23.478Z,77.83
2022-10-09T16:23:10.683Z,77.46
2022-10-09T16:26:02.913Z,78.15
2022-10-09T16:28:49.895Z,78.49
2022-10-09T16:31:36.488Z,78.51
2022-10-09T16:34:22.492Z,79.09
2022-10-09T16:37:07.913Z,79.39
2022-10-09T16:39:53.587Z,79.79
2022-10-09T16:42:39.623Z,80.04
2022-10-09T16:45:25.943Z,80.63
2022-10-09T16:48:11.560Z,80.70
2022-10-09T16:50:57.616Z,80.71
2022-10-09T16:53:43.450Z,80.99
2022-10-09T16:56:33.082Z,81.25
2022-10-09T16:59:18.966Z,81.37
2022-10-09T17:02:04.601Z,81.57
2022-10-09T17:04:50.017Z,81.51
2022-10-09T17:07:36.043Z,82.06
2022-10-09T17:10:21.812Z,82.39
2022-10-09T17:13:07.734Z,82.84
2022-10-09T17:15:53.420Z,82.94
2022-10-09T17:18:39.613Z,83.06
2022-10-09T17:21:29.297Z,83.03
2022-10-09T17:24:18.890Z,83.09
2022-10-09T17:27:08.929Z,83.38
2022-10-09T17:29:54.788Z,83.99
2022-10-09T17:32:40.585Z,84.26
2022-10-09T17:35:26.165Z,84.73
2022-10-09T17:38:11.720Z,85.10
2022-10-09T17:40:57.526Z,85.04
2022-10-09T17:43:42.908Z,85.20
2022-10-09T17:46:30.536Z,85.04
2022-10-09T17:49:16.613Z,85.33
2022-10-09T17:52:03.089Z,85.79
2022-10-09T17:54:49.088Z,86.15
2022-10-09T17:57:34.860Z,86.28
2022-10-09T18:00:21.935Z,86.14
2022-10-09T18:03:08.092Z,86.36
2022-10-09T18:05:53.412Z,86.59
2022-10-09T18:08:39.917Z,86.19
2022-10-09T18:11:27.367Z,86.31
2022-10-09T18:14:13.413Z,86.30
2022-10-09T18:16:59.556Z,86.07
2022-10-09T18:19:45.506Z,86.37
2022-10-09T18:22:31.679Z,85.93
2022-10-09T18:25:17.652Z,85.69
2022-10-09T18:28:03.293Z,86.47
2022-10-09T18:30:49.264Z,86.75
2022-10-09T18:33:35.546Z,86.72
2022-10-09T18:36:24.569Z,86.71
2022-10-09T18:39:13.668Z,86.72
2022-10-09T18:42:02.185Z,86.90
2022-10-09T18:44:47.722Z,87.26
2022-10-09T18:47:35.236Z,87.55
2022-10-09T18:50:21.383Z,87.46
2022-10-09T18:53:07.594Z,87.65
2022-10-09T18:55:53.247Z,87.73
2022-10-09T18:58:40.717Z,88.33
2022-10-09T19:01:27.350Z,88.31
2022-10-09T19:04:13.156Z,88.50
2022-10-09T19:06:58.887Z,88.51
2022-10-09T19:09:44.913Z,88.56
2022-10-09T19:12:30.467Z,88.84
2022-10-09T19:15:16.450Z,88.80
2022-10-09T19:18:02.362Z,89.00
2022-10-09T19:20:48.835Z,88.60
2022-10-09T19:23:34.575Z,88.83
2022-10-09T19:26:21.193Z,88.56
2022-10-09T19:29:07.580Z,89.13
2022-10-09T19:31:54.136Z,89.50
2022-10-09T19:34:39.744Z,89.19
2022-10-09T19:37:28.961Z,89.78
2022-10-09T19:40:15.748Z,89.61
2022-10-09T19:43:01.604Z,89.69
2022-10-09T19:45:49.763Z,89.52
2022-10-09T19:48:36.673Z,89.41
2022-10-09T19:51:25.506Z,89.77
2022-10-09T19:54:12.405Z,89.53
2022-10-09T19:56:58.188Z,89.62
2022-10-09T19:59:44.263Z,89.62
2022-10-09T20:02:30.477Z,89.70
2022-10-09T20:05:16.574Z,89.82
2022-10-09T20:08:02.246Z,89.81
2022-10-09T20:10:48.209Z,90.19
2022-10-09T20:13:36.148Z,90.08
2022-10-09T20:16:22.430Z,90.25
2022-10-09T20:19:08.327Z,89.99
2022-10-09T20:21:54.277Z,90.40
2022-10-09T20:24:39.667Z,90.37
2022-10-09T20:27:25.822Z,90.40
2022-10-09T20:30:12.127Z,90.38
2022-10-09T20:32:59.439Z,90.27
2022-10-09T20:35:45.465Z,90.58
2022-10-09T20:38:31.421Z,90.56
2022-10-09T20:41:17.056Z,90.62
2022-10-09T20:44:04.037Z,90.53
2022-10-09T20:46:50.172Z,90.57
2022-10-09T20:49:36.088Z,90.89
2022-10-09T20:52:22.121Z,90.70
2022-10-09T20:55:08.211Z,90.67
2022-10-09T20:57:55.002Z,90.74
2022-10-09T21:00:42.963Z,91.07
2022-10-09T21:03:28.724Z,91.34
2022-10-09T21:06:17.386Z,91.29
2022-10-09T21:09:03.379Z,91.25
2022-10-09T21:11:50.617Z,91.36
2022-10-09T21:14:36.648Z,91.64
2022-10-09T21:17:22.994Z,91.37
2022-10-09T21:20:09.021Z,91.44
2022-10-09T21:22:54.895Z,91.50
2022-10-09T21:25:50.128Z,91.52
2022-10-09T21:28:36.040Z,91.35
2022-10-09T21:31:26.132Z,91.33
2022-10-09T21:34:11.996Z,91.53
2022-10-09T21:40:03.965Z,91.55
2022-10-09T21:42:49.929Z,91.52
2022-10-09T21:45:36.872Z,91.63
2022-10-09T21:48:22.552Z,91.65
2022-10-09T21:51:08.618Z,91.39
2022-10-09T21:53:55.054Z,91.26
2022-10-09T21:56:41.224Z,91.39
2022-10-09T21:59:27.199Z,91.56
2022-10-09T22:02:13.159Z,91.75
2022-10-09T22:04:59.326Z,91.69
2022-10-09T22:07:44.961Z,91.55
2022-10-09T22:10:30.686Z,91.47
2022-10-09T22:13:17.638Z,91.54
2022-10-09T22:16:08.161Z,91.70
2022-10-09T22:18:54.155Z,91.79
2022-10-09T22:21:40.063Z,91.77
2022-10-09T22:24:29.186Z,91.71
2022-10-09T22:27:15.315Z,91.95
2022-10-09T22:30:01.306Z,92.02
2022-10-09T22:32:46.890Z,91.87
2022-10-09T22:35:32.925Z,91.99
2022-10-09T22:38:18.474Z,92.16
2022-10-09T22:41:12.530Z,92.29
2022-10-09T22:43:59.399Z,92.23
2022-10-09T22:46:45.894Z,91.95
2022-10-09T22:49:31.379Z,92.21
2022-10-09T22:52:17.471Z,92.26
2022-10-09T22:55:04.052Z,92.27
2022-10-09T22:57:49.836Z,92.31
2022-10-09T23:00:38.431Z,92.74
2022-10-09T23:03:24.518Z,92.54
2022-10-09T23:06:12.725Z,92.79
2022-10-09T23:08:59.296Z,92.82
2022-10-09T23:11:45.149Z,92.67
2022-10-09T23:14:31.219Z,92.98
2022-10-09T23:17:16.828Z,92.93
2022-10-09T23:20:03.205Z,93.17
2022-10-09T23:22:49.135Z,93.30
2022-10-09T23:25:39.925Z,93.04
2022-10-09T23:28:27.848Z,93.35
2022-10-09T23:31:14.776Z,93.31
2022-10-09T23:34:00.372Z,93.12
2022-10-09T23:36:46.346Z,93.19
2022-10-09T23:39:31.842Z,93.31
2022-10-09T23:42:17.840Z,93.67
2022-10-09T23:45:03.646Z,93.25
2022-10-09T23:47:49.795Z,93.60
2022-10-09T23:50:35.270Z,93.52
2022-10-09T23:53:21.876Z,93.40
2022-10-09T23:56:23.794Z,93.69
2022-10-09T23:59:11.123Z,93.41
